Aeroporto :







RITROVATECI SU...

 
LOGIN :

Iscrizione | Disclaimer

   EN    FR    IT 

 









Sommario :    VFR   VFR Marginale   IFR   IFR Intensivo   IFR Molto Intensivo
Visibilità : 
Base nubi : 
>= 8 km
>= 3000ft
5 / 8 km
1000 / 3000 ft
1500m / 5 km
500 / 1000 ft
800 / 1500m
200 / 500 ft
< 800m
< 200 ft
Simboli :   Temporali  Nebbia  Neve Forte  Precipitazioni Forti  Vento > 20 kt






- Altitudine del aeroporto : 408 ft


KMLT - Millinocket Municipal

ULTIMO METAR :
  • 160653Z AUTO 30017G25KT 10SM CLR M08/M17 A2983 RMK AO2 PK WND 29030/0637 PRESRR SLP112 T10781172

METARs OBSOLETI :
  • 160553Z AUTO 28012G22KT 10SM CLR M07/M16 A2976 RMK AO2 PK WND 27031/0517 PRESRR SLP089 60000 T10721161 11006 21072 53036
  • 160453Z AUTO 29016G30KT 10SM CLR M07/M16 A2970 RMK AO2 PK WND 26030/0446 SLP069 T10671156 401111067

TAF N/A



MetMap, La meteo Aeronautica in un colpo d'occhio ! - Copyright ORBIFLY Dicembre 2007 - Disclaimer

ORBIFLY MET'MAP TEAM :

Programmazione e sviluppo : Alexandra Zaïnal
Concezione : Baudouin d'Aumeries
Aiuto per la programmazione : Marc-Olivier Méhu
Supporto tecnico e logistico : Manuel Goepfert
Aiuto per la traduzione : Arnaldo La Scala

Contatto : metmap@orbifly.com




FONTI E CREDITI :

   NOAA